Airfield :
LOGIN :

Register | Disclaimer

   EN    FR    IT 

 










Legend :    VFR   Marginal VFR   IFR   Intensive IFR   Very Intensive IFR
Visi :
Ceiling :
>= 8 km
>= 3000ft
5 to 8 km
1000 to 3000 ft
1500m to 5 km
500 to 1000 ft
800 to 1500m
200 to 500 ft
< 800m
< 200 ft
Symbols :   Thunderstorms  Fog  Heavy snow  Heavy precipitations  Wind > 20 kt
SIGMETs :     Misc.  Thunderstorms  Icing  Turbulence  Mountain Waves  Volcanic Ashes







- Airport Elevation : 120 ft
- IATA code : MME
- Download approach charts


EGNV - Durham Tees valley

CURRENT METAR :
  • 241450Z 19013KT CAVOK 25/07 Q1017

EXPIRED METARs :
  • 241420Z 18011KT CAVOK 25/10 Q1018
  • 241350Z 17011KT 140V200 CAVOK 26/11 Q1018
  • 241320Z 16010KT 130V190 CAVOK 25/12 Q1018
  • 241250Z 18012KT CAVOK 25/10 Q1018
  • 241220Z 18011KT CAVOK 24/12 Q1019

TAF TAF EGNV
Valid from the 24 at 15:00 until the 24 at 21:00 UTC


241355Z 2415/2421 17007KT 9999 FEW045
ATIS : +44 9012 018 111
No reported NOTAMs for that airfield.



MET'MAP, your aeronautical weather chart ! - Copyright ORBIFLY December 2007 - Disclaimer

ORBIFLY MET'MAP TEAM :

Programming & Development : Alexandra Zaïnal
Concept & Development : Baudouin d'Aumeries
Co-Development & Prog : Marc-Olivier Méhu
Technical & hardware support : Manuel Goepfert

Contact : metmap@orbifly.com




SOURCES & CREDITS :

   NOAA